createdAt,value
2022-08-20T00:02:16.520Z,1.40
2022-08-20T00:05:07.277Z,1.40
2022-08-20T00:07:58.960Z,1.27
2022-08-20T00:10:54.949Z,1.38
2022-08-20T00:13:54.062Z,1.20
2022-08-20T00:16:44.420Z,1.30
2022-08-20T00:19:34.801Z,1.00
2022-08-20T00:22:25.167Z,1.10
2022-08-20T00:25:19.954Z,1.10
2022-08-20T00:28:10.744Z,1.20
2022-08-20T00:31:04.478Z,1.10
2022-08-20T00:33:54.940Z,1.00
2022-08-20T00:36:45.334Z,1.15
2022-08-20T00:39:36.031Z,1.42
2022-08-20T00:42:26.361Z,1.05
2022-08-20T00:45:17.995Z,1.20
2022-08-20T00:48:08.257Z,1.20
2022-08-20T00:51:06.753Z,1.10
2022-08-20T00:54:05.655Z,1.10
2022-08-20T00:57:06.036Z,1.10
2022-08-20T00:59:58.527Z,1.23
2022-08-20T01:02:50.546Z,1.23
2022-08-20T01:05:47.925Z,1.15
2022-08-20T01:08:40.045Z,1.20
2022-08-20T01:11:37.091Z,1.27
2022-08-20T01:14:37.342Z,1.33
2022-08-20T01:17:32.414Z,0.95
2022-08-20T01:20:26.370Z,1.42
2022-08-20T01:23:32.310Z,1.10
2022-08-20T01:26:37.815Z,1.20
2022-08-20T01:29:36.570Z,1.40
2022-08-20T01:32:26.927Z,1.23
2022-08-20T01:35:22.102Z,1.33
2022-08-20T01:38:12.941Z,1.05
2022-08-20T01:41:09.209Z,1.10
2022-08-20T01:43:59.960Z,1.13
2022-08-20T01:46:52.306Z,1.20
2022-08-20T01:49:46.131Z,1.30
2022-08-20T01:53:17.678Z,1.00
2022-08-20T01:56:10.524Z,1.20
2022-08-20T01:59:08.607Z,1.10
2022-08-20T02:01:59.945Z,1.48
2022-08-20T02:04:50.040Z,1.35
2022-08-20T02:07:40.398Z,1.20
2022-08-20T02:10:34.048Z,1.23
2022-08-20T02:13:24.666Z,1.08
2022-08-20T02:16:14.758Z,1.25
2022-08-20T02:19:12.323Z,1.15
2022-08-20T02:22:09.313Z,1.23
2022-08-20T02:24:59.790Z,1.10
2022-08-20T02:27:51.986Z,1.05
2022-08-20T02:30:46.992Z,1.15
2022-08-20T02:33:37.352Z,1.30
2022-08-20T02:36:29.529Z,1.55
2022-08-20T02:39:20.169Z,1.30
2022-08-20T02:42:12.171Z,1.30
2022-08-20T02:45:04.563Z,1.45
2022-08-20T02:47:57.563Z,1.45
2022-08-20T02:50:54.565Z,1.30
2022-08-20T02:53:44.572Z,1.42
2022-08-20T02:56:35.567Z,1.40
2022-08-20T02:59:25.853Z,1.70
2022-08-20T03:02:16.330Z,1.58
2022-08-20T03:05:06.850Z,1.48
2022-08-20T03:07:57.466Z,1.42
2022-08-20T03:10:48.837Z,1.58
2022-08-20T03:13:39.301Z,2.10
2022-08-20T03:16:29.508Z,1.63
2022-08-20T03:19:19.729Z,2.00
2022-08-20T03:22:09.851Z,1.35
2022-08-20T03:24:59.704Z,1.50
2022-08-20T03:27:54.205Z,1.58
2022-08-20T03:30:44.977Z,1.80
2022-08-20T03:33:35.622Z,1.73
2022-08-20T03:36:28.003Z,2.00
2022-08-20T03:39:19.012Z,1.97
2022-08-20T03:42:08.823Z,1.25
2022-08-20T03:44:59.442Z,1.55
2022-08-20T03:47:51.755Z,1.50
2022-08-20T03:50:42.548Z,1.80
2022-08-20T03:53:33.111Z,1.80
2022-08-20T03:56:23.303Z,2.20
2022-08-20T03:59:13.611Z,1.83
2022-08-20T04:02:03.558Z,2.05
2022-08-20T04:04:55.015Z,1.83
2022-08-20T04:07:45.239Z,1.80
2022-08-20T04:10:35.887Z,2.22
2022-08-20T04:13:27.785Z,2.28
2022-08-20T04:16:19.565Z,2.30
2022-08-20T04:19:09.885Z,2.40
2022-08-20T04:22:00.405Z,2.50
2022-08-20T04:24:50.579Z,2.22
2022-08-20T04:27:41.239Z,2.35
2022-08-20T04:30:33.006Z,2.30
2022-08-20T04:33:34.148Z,2.40
2022-08-20T04:36:26.102Z,2.40
2022-08-20T04:39:16.804Z,2.70
2022-08-20T04:42:07.168Z,2.60
2022-08-20T04:44:57.293Z,2.10
2022-08-20T04:47:47.971Z,2.65
2022-08-20T04:50:39.826Z,2.45
2022-08-20T04:53:30.116Z,2.70
2022-08-20T04:56:25.875Z,2.75
2022-08-20T04:59:16.264Z,2.30
2022-08-20T05:02:06.586Z,2.90
2022-08-20T05:04:57.064Z,2.42
2022-08-20T05:07:47.547Z,2.70
2022-08-20T05:10:39.786Z,2.38
2022-08-20T05:13:30.037Z,2.70
2022-08-20T05:16:20.884Z,2.38
2022-08-20T05:19:12.774Z,2.90
2022-08-20T05:22:03.006Z,2.78
2022-08-20T05:24:53.776Z,2.72
2022-08-20T05:27:48.883Z,3.03
2022-08-20T05:30:45.329Z,2.90
2022-08-20T05:33:38.964Z,3.08
2022-08-20T05:36:29.249Z,2.78
2022-08-20T05:39:21.122Z,2.85
2022-08-20T05:42:11.319Z,3.15
2022-08-20T05:45:02.006Z,2.92
2022-08-20T05:47:56.413Z,3.17
2022-08-20T05:50:49.380Z,2.88
2022-08-20T05:53:39.471Z,3.15
2022-08-20T05:56:30.582Z,3.70
2022-08-20T05:59:24.241Z,2.80
2022-08-20T06:02:33.808Z,2.75
2022-08-20T06:05:25.140Z,3.53
2022-08-20T06:08:16.771Z,3.70
2022-08-20T06:11:07.673Z,3.50
2022-08-20T06:13:58.010Z,3.00
2022-08-20T06:16:57.432Z,3.00
2022-08-20T06:19:48.823Z,3.20
2022-08-20T06:22:40.856Z,3.15
2022-08-20T06:25:34.921Z,3.55
2022-08-20T06:28:28.163Z,3.28
2022-08-20T06:31:18.562Z,3.30
2022-08-20T06:34:09.236Z,3.05
2022-08-20T06:36:59.792Z,3.15
2022-08-20T06:39:52.115Z,3.50
2022-08-20T06:42:48.611Z,3.67
2022-08-20T06:45:39.380Z,3.47
2022-08-20T06:48:29.722Z,3.60
2022-08-20T06:51:20.529Z,3.70
2022-08-20T06:54:10.837Z,3.35
2022-08-20T06:57:03.077Z,3.50
2022-08-20T06:59:54.973Z,3.35
2022-08-20T07:02:47.029Z,3.90
2022-08-20T07:05:43.568Z,3.47
2022-08-20T07:08:35.498Z,3.35
2022-08-20T07:11:28.496Z,3.83
2022-08-20T07:14:19.687Z,3.20
2022-08-20T07:17:12.274Z,3.55
2022-08-20T07:20:08.471Z,3.53
2022-08-20T07:23:00.611Z,3.85
2022-08-20T07:25:51.093Z,3.55
2022-08-20T07:28:41.288Z,4.20
2022-08-20T07:31:50.396Z,3.92
2022-08-20T07:34:43.632Z,4.00
2022-08-20T07:37:43.504Z,4.50
2022-08-20T07:40:35.278Z,3.90
2022-08-20T07:43:25.974Z,4.28
2022-08-20T07:46:20.783Z,4.22
2022-08-20T07:49:11.194Z,4.25
2022-08-20T07:52:02.025Z,3.80
2022-08-20T07:54:52.227Z,3.55
2022-08-20T07:57:46.747Z,3.90
2022-08-20T08:00:37.303Z,3.70
2022-08-20T08:03:39.922Z,3.30
2022-08-20T08:06:40.548Z,3.42
2022-08-20T08:09:33.594Z,3.25
2022-08-20T08:12:26.253Z,3.70
2022-08-20T08:15:22.472Z,3.90
2022-08-20T08:18:21.622Z,3.30
2022-08-20T08:21:13.103Z,3.67
2022-08-20T08:24:03.604Z,3.00
2022-08-20T08:26:53.980Z,3.22
2022-08-20T08:29:45.809Z,3.00
2022-08-20T08:32:37.639Z,4.03
2022-08-20T08:35:28.235Z,3.20
2022-08-20T08:38:18.182Z,3.17
2022-08-20T08:41:33.998Z,2.83
2022-08-20T08:44:36.214Z,3.08
2022-08-20T08:47:30.917Z,2.30
2022-08-20T08:50:52.988Z,2.60
2022-08-20T08:53:47.477Z,2.30
2022-08-20T08:56:37.433Z,2.40
2022-08-20T08:59:47.365Z,2.45
2022-08-20T09:02:42.482Z,2.67
2022-08-20T09:05:48.305Z,2.17
2022-08-20T09:08:48.243Z,2.13
2022-08-20T09:11:48.545Z,2.53
2022-08-20T09:14:39.603Z,2.33
2022-08-20T09:17:29.897Z,2.45
2022-08-20T09:20:20.323Z,2.60
2022-08-20T09:23:13.233Z,3.33
2022-08-20T09:26:03.661Z,2.28
2022-08-20T09:28:54.159Z,2.92
2022-08-20T09:31:45.195Z,2.97
2022-08-20T09:34:39.090Z,2.80
2022-08-20T09:37:36.672Z,2.90
2022-08-20T09:40:27.785Z,2.80
2022-08-20T09:43:18.309Z,2.80
2022-08-20T09:46:08.587Z,2.90
2022-08-20T09:48:58.926Z,2.75
2022-08-20T09:51:48.910Z,2.80
2022-08-20T09:54:44.542Z,2.30
2022-08-20T09:57:36.988Z,2.60
2022-08-20T10:00:28.111Z,2.70
2022-08-20T10:03:18.873Z,2.25
2022-08-20T10:06:11.006Z,2.10
2022-08-20T10:09:03.227Z,2.67
2022-08-20T10:11:53.565Z,2.83
2022-08-20T10:14:43.659Z,2.80
2022-08-20T10:17:38.413Z,3.17
2022-08-20T10:20:28.975Z,3.38
2022-08-20T10:23:19.285Z,3.25
2022-08-20T10:26:11.694Z,4.10
2022-08-20T10:29:01.804Z,4.90
2022-08-20T10:31:52.644Z,6.35
2022-08-20T10:34:45.052Z,3.40
2022-08-20T10:37:36.328Z,3.00
2022-08-20T10:40:26.681Z,2.95
2022-08-20T10:43:16.750Z,3.20
2022-08-20T10:46:07.291Z,2.72
2022-08-20T10:48:57.291Z,2.60
2022-08-20T10:51:47.679Z,2.90
2022-08-20T10:54:42.001Z,4.88
2022-08-20T10:57:33.696Z,4.03
2022-08-20T11:00:26.215Z,4.28
2022-08-20T11:03:16.604Z,4.25
2022-08-20T11:06:06.868Z,4.30
2022-08-20T11:08:57.250Z,4.25
2022-08-20T11:11:47.360Z,5.38
2022-08-20T11:14:37.959Z,3.80
2022-08-20T11:17:31.561Z,4.25
2022-08-20T11:20:27.502Z,2.70
2022-08-20T11:23:18.079Z,2.00
2022-08-20T11:26:08.842Z,2.50
2022-08-20T11:28:59.042Z,2.35
2022-08-20T11:31:49.364Z,2.20
2022-08-20T11:34:39.566Z,2.40
2022-08-20T11:37:31.219Z,2.33
2022-08-20T11:40:22.083Z,2.40
2022-08-20T11:43:15.074Z,1.90
2022-08-20T11:46:06.125Z,2.10
2022-08-20T11:48:56.656Z,1.98
2022-08-20T11:51:49.588Z,1.70
2022-08-20T11:54:40.624Z,1.88
2022-08-20T11:57:33.175Z,1.80
2022-08-20T12:00:32.039Z,1.80
2022-08-20T12:03:24.090Z,1.58
2022-08-20T12:06:14.758Z,1.52
2022-08-20T12:09:05.024Z,1.77
2022-08-20T12:11:55.145Z,1.65
2022-08-20T12:14:45.304Z,1.95
2022-08-20T12:17:36.072Z,1.80
2022-08-20T12:20:26.380Z,1.65
2022-08-20T12:23:16.430Z,2.03
2022-08-20T12:26:06.743Z,1.60
2022-08-20T12:28:57.077Z,1.20
2022-08-20T12:31:47.209Z,1.05
2022-08-20T12:34:40.466Z,1.65
2022-08-20T12:37:31.731Z,0.73
2022-08-20T12:40:32.318Z,0.80
2022-08-20T12:43:25.165Z,0.82
2022-08-20T12:46:15.739Z,0.93
2022-08-20T12:49:05.776Z,0.93
2022-08-20T12:51:56.253Z,1.20
2022-08-20T12:54:46.821Z,1.20
2022-08-20T12:57:41.784Z,3.83
2022-08-20T13:00:36.638Z,2.20
2022-08-20T13:03:26.912Z,1.13
2022-08-20T13:06:22.804Z,1.20
2022-08-20T13:09:14.128Z,1.27
2022-08-20T13:12:04.365Z,1.20
2022-08-20T13:14:56.108Z,1.40
2022-08-20T13:17:51.937Z,1.30
2022-08-20T13:20:42.337Z,1.33
2022-08-20T13:23:32.580Z,1.75
2022-08-20T13:26:22.828Z,1.70
2022-08-20T13:29:13.618Z,1.95
2022-08-20T13:32:04.857Z,2.30
2022-08-20T13:34:55.107Z,2.22
2022-08-20T13:37:45.539Z,2.30
2022-08-20T13:40:35.593Z,2.05
2022-08-20T13:43:25.627Z,2.20
2022-08-20T13:46:15.905Z,2.83
2022-08-20T13:49:05.773Z,2.42
2022-08-20T13:51:55.710Z,2.55
2022-08-20T13:54:46.154Z,2.10
2022-08-20T13:57:37.175Z,2.42
2022-08-20T14:00:31.747Z,2.40
2022-08-20T14:03:25.764Z,2.28
2022-08-20T14:06:16.300Z,2.25
2022-08-20T14:09:06.206Z,2.38
2022-08-20T14:11:56.794Z,2.72
2022-08-20T14:14:47.366Z,2.25
2022-08-20T14:17:42.953Z,2.40
2022-08-20T14:20:34.378Z,2.60
2022-08-20T14:23:24.703Z,2.22
2022-08-20T14:26:14.743Z,2.50
2022-08-20T14:29:04.753Z,2.67
2022-08-20T14:31:54.850Z,2.30
2022-08-20T14:34:44.890Z,1.98
2022-08-20T14:37:39.022Z,2.17
2022-08-20T14:40:29.116Z,2.00
2022-08-20T14:43:19.282Z,2.08
2022-08-20T14:46:09.752Z,2.00
2022-08-20T14:49:00.226Z,2.10
2022-08-20T14:51:50.706Z,1.90
2022-08-20T14:54:42.419Z,1.88
2022-08-20T14:57:33.028Z,1.70
2022-08-20T15:00:37.456Z,1.33
2022-08-20T15:03:30.463Z,1.50
2022-08-20T15:06:21.974Z,1.40
2022-08-20T15:09:13.301Z,1.70
2022-08-20T15:12:04.119Z,1.80
2022-08-20T15:14:54.921Z,1.83
2022-08-20T15:17:48.726Z,1.70
2022-08-20T15:20:38.887Z,1.80
2022-08-20T15:23:29.126Z,1.42
2022-08-20T15:26:19.597Z,1.63
2022-08-20T15:29:09.805Z,1.10
2022-08-20T15:32:00.701Z,1.45
2022-08-20T15:34:50.921Z,1.60
2022-08-20T15:37:43.976Z,1.27
2022-08-20T15:40:34.691Z,1.75
2022-08-20T15:43:24.921Z,1.30
2022-08-20T15:46:15.466Z,1.27
2022-08-20T15:49:11.362Z,1.63
2022-08-20T15:52:02.044Z,1.50
2022-08-20T15:54:55.167Z,1.38
2022-08-20T15:57:59.216Z,1.40
2022-08-20T16:01:23.963Z,1.40
2022-08-20T16:04:23.876Z,0.98
2022-08-20T16:07:24.009Z,1.30
2022-08-20T16:10:27.180Z,0.80
2022-08-20T16:13:40.870Z,1.10
2022-08-20T16:16:43.998Z,1.13
2022-08-20T16:19:46.462Z,1.05
2022-08-20T16:22:46.821Z,1.20
2022-08-20T16:25:59.795Z,0.90
2022-08-20T16:29:11.651Z,1.10
2022-08-20T16:32:42.597Z,1.00
2022-08-20T16:35:54.245Z,1.08
2022-08-20T16:38:56.933Z,0.90
2022-08-20T16:41:51.674Z,0.82
2022-08-20T16:44:47.307Z,0.90
2022-08-20T16:47:40.732Z,0.90
2022-08-20T16:50:39.706Z,0.80
2022-08-20T16:53:30.072Z,1.08
2022-08-20T16:56:41.559Z,1.00
2022-08-20T16:59:33.044Z,1.10
2022-08-20T17:02:24.956Z,1.23
2022-08-20T17:05:15.472Z,1.20
2022-08-20T17:08:16.925Z,1.40
2022-08-20T17:11:13.264Z,1.13
2022-08-20T17:14:16.439Z,1.15
2022-08-20T17:17:43.838Z,1.02
2022-08-20T17:20:44.232Z,1.23
2022-08-20T17:23:54.638Z,1.20
2022-08-20T17:26:49.286Z,1.20
2022-08-20T17:29:54.991Z,1.08
2022-08-20T17:32:57.870Z,1.40
2022-08-20T17:35:53.513Z,1.27
2022-08-20T17:38:52.608Z,1.40
2022-08-20T17:41:47.901Z,1.17
2022-08-20T17:44:42.956Z,1.40
2022-08-20T17:47:36.253Z,1.00
2022-08-20T17:50:32.088Z,1.35
2022-08-20T17:53:26.158Z,1.40
2022-08-20T17:56:20.835Z,1.27
2022-08-20T18:00:02.647Z,1.40
2022-08-20T18:02:36.969Z,1.38
2022-08-20T18:05:31.232Z,1.55
2022-08-20T18:08:40.226Z,1.30
2022-08-20T18:11:43.844Z,1.75
2022-08-20T18:14:59.771Z,1.10
2022-08-20T18:18:07.657Z,1.42
2022-08-20T18:21:21.964Z,1.60
2022-08-20T18:27:10.334Z,1.25
2022-08-20T18:30:00.609Z,1.38
2022-08-20T18:33:02.157Z,1.33
2022-08-20T18:36:23.256Z,1.60
2022-08-20T18:39:27.577Z,1.30
2022-08-20T18:42:21.121Z,1.50
2022-08-20T18:45:11.677Z,2.00
2022-08-20T18:48:04.036Z,1.38
2022-08-20T18:50:56.996Z,1.77
2022-08-20T18:53:48.460Z,1.25
2022-08-20T18:56:42.756Z,1.20
2022-08-20T18:59:40.377Z,1.65
2022-08-20T19:02:37.349Z,1.52
2022-08-20T19:05:34.266Z,1.77
2022-08-20T19:08:38.707Z,1.13
2022-08-20T19:11:41.837Z,1.40
2022-08-20T19:14:38.200Z,1.30
2022-08-20T19:17:48.360Z,1.50
2022-08-20T19:20:48.634Z,1.80
2022-08-20T19:23:41.281Z,1.60
2022-08-20T19:26:39.345Z,1.35
2022-08-20T19:29:32.537Z,1.73
2022-08-20T19:32:29.662Z,1.23
2022-08-20T19:35:20.909Z,1.60
2022-08-20T19:38:16.326Z,1.67
2022-08-20T19:41:11.352Z,1.50
2022-08-20T19:44:02.278Z,1.70
2022-08-20T19:46:53.004Z,1.50
2022-08-20T19:49:54.325Z,1.35
2022-08-20T19:53:06.872Z,1.38
2022-08-20T19:56:12.520Z,1.63
2022-08-20T19:59:09.394Z,1.50
2022-08-20T20:02:02.975Z,1.60
2022-08-20T20:04:55.059Z,1.38
2022-08-20T20:07:52.088Z,1.60
2022-08-20T20:10:44.182Z,1.80
2022-08-20T20:13:38.898Z,2.38
2022-08-20T20:16:31.356Z,1.55
2022-08-20T20:19:28.949Z,1.27
2022-08-20T20:22:30.733Z,1.40
2022-08-20T20:25:35.746Z,1.40
2022-08-20T20:28:29.510Z,1.70
2022-08-20T20:31:32.365Z,2.00
2022-08-20T20:34:29.553Z,1.92
2022-08-20T20:37:50.144Z,1.80
2022-08-20T20:40:52.832Z,1.75
2022-08-20T20:43:43.157Z,1.73
2022-08-20T20:46:35.811Z,1.50
2022-08-20T20:49:37.051Z,1.60
2022-08-20T20:52:34.016Z,1.70
2022-08-20T20:55:36.006Z,2.17
2022-08-20T20:58:28.480Z,1.90
2022-08-20T21:01:18.854Z,2.00
2022-08-20T21:04:29.487Z,2.08
2022-08-20T21:07:23.005Z,1.77
2022-08-20T21:10:14.012Z,1.98
2022-08-20T21:13:10.345Z,1.95
2022-08-20T21:16:01.043Z,2.15
2022-08-20T21:18:51.892Z,1.90
2022-08-20T21:22:05.069Z,2.35
2022-08-20T21:28:57.968Z,2.55
2022-08-20T21:32:01.849Z,2.72
2022-08-20T21:34:59.192Z,1.95
2022-08-20T21:42:40.417Z,1.90
2022-08-20T21:45:31.442Z,2.05
2022-08-20T21:48:23.652Z,2.40
2022-08-20T21:51:14.318Z,2.63
2022-08-20T21:54:04.928Z,2.38
2022-08-20T21:57:08.329Z,2.60
2022-08-20T22:00:02.026Z,2.90
2022-08-20T22:02:55.381Z,2.60
2022-08-20T22:05:45.950Z,2.72
2022-08-20T22:08:36.305Z,2.47
2022-08-20T22:11:27.170Z,1.95
2022-08-20T22:14:18.477Z,2.20
2022-08-20T22:17:09.178Z,1.83
2022-08-20T22:20:00.048Z,2.40
2022-08-20T22:22:50.688Z,2.00
2022-08-20T22:25:44.350Z,2.05
2022-08-20T22:28:35.031Z,1.80
2022-08-20T22:31:34.643Z,1.85
2022-08-20T22:34:26.526Z,2.30
2022-08-20T22:37:17.372Z,1.92
2022-08-20T22:40:08.666Z,2.03
2022-08-20T22:42:59.497Z,2.28
2022-08-20T22:45:53.528Z,2.20
2022-08-20T22:48:44.316Z,2.75
2022-08-20T22:51:38.701Z,2.72
2022-08-20T22:54:29.451Z,2.90
2022-08-20T22:57:20.472Z,2.67
2022-08-20T23:00:17.245Z,2.80
2022-08-20T23:03:08.035Z,2.80
2022-08-20T23:05:58.634Z,2.88
2022-08-20T23:08:49.272Z,2.63
2022-08-20T23:11:42.820Z,2.33
2022-08-20T23:14:36.431Z,2.78
2022-08-20T23:17:27.101Z,2.60
2022-08-20T23:20:18.457Z,3.13
2022-08-20T23:23:09.315Z,3.05
2022-08-20T23:26:00.849Z,2.75
2022-08-20T23:28:54.167Z,3.13
2022-08-20T23:31:53.913Z,2.72
2022-08-20T23:34:46.706Z,3.00
2022-08-20T23:37:49.149Z,2.55
2022-08-20T23:40:40.130Z,2.60
2022-08-20T23:43:31.312Z,3.22
2022-08-20T23:46:26.300Z,3.00
2022-08-20T23:49:17.106Z,2.65
2022-08-20T23:52:07.891Z,3.00
2022-08-20T23:54:58.187Z,2.90
2022-08-20T23:57:49.768Z,3.28
